Search for airport 
image banner adimage banner adimage banner ad
image banner ad

0CL8 - Tera

Located in Ridgecrest, United States

ICAO - 0CL8, IATA -

Data provided by Airmate  

General information

Coordinates: N35°35'29" W117°38'1"
Elevation is 2510 feet MSL.
Magnetic variation is 14° East
View others Airports in California

Operational data

Special qualification required
Current time UTC:
Current local time:
METAR: KNID 240756Z AUTO VRB03KT 10SM CLR 25/01 A2996 RMK AO2 SLP122 T02500006 403720211 $
TAF: TAF AMD KNID 2405/2423 20016G24KT 9999 FEW100 QNH2993INS BECMG 2406/2408 24007KT 9999 SKC QNH2994INS BECMG 2416/2418 12007G14KT 9999 SKC QNH2987INS WND 080V160 BECMG 2420/2422 19012G20KT 9999 FEW100 QNH2985INS LAST NO AMDS AFT 2405 NEXT 2415 T18/2413Z T38/2423Z AMD 0515
View NOTAMs / SUP AIP / TFR affecting this airport [VIEW]
Communications frequencies: [VIEW]

Runways:

RWY identifierQFULength (ft)Width (ft)SurfaceLDA (ft)
06350080GRASS
24350080GRASS

Airport contact information

Address: Ridgecrest United States

Satellite view of 0CL8